createdAt,value
2018-05-10T00:01:17.048Z,15.10
2018-05-10T00:03:46.311Z,15.10
2018-05-10T00:06:15.349Z,15.00
2018-05-10T00:08:44.395Z,15.00
2018-05-10T00:11:13.697Z,14.90
2018-05-10T00:13:43.519Z,14.90
2018-05-10T00:16:13.325Z,14.80
2018-05-10T00:18:42.428Z,14.80
2018-05-10T00:21:12.244Z,14.80
2018-05-10T00:23:42.053Z,14.80
2018-05-10T00:26:11.865Z,14.70
2018-05-10T00:28:41.677Z,14.70
2018-05-10T00:31:11.632Z,14.70
2018-05-10T00:33:40.676Z,14.70
2018-05-10T00:36:10.481Z,14.60
2018-05-10T00:38:39.590Z,14.60
2018-05-10T00:41:09.405Z,14.60
2018-05-10T00:43:39.247Z,14.60
2018-05-10T00:46:08.311Z,14.50
2018-05-10T00:48:38.140Z,14.50
2018-05-10T00:51:07.267Z,14.50
2018-05-10T00:53:36.268Z,14.50
2018-05-10T00:56:05.312Z,14.50
2018-05-10T00:58:35.157Z,14.50
2018-05-10T01:01:04.193Z,14.50
2018-05-10T01:03:33.297Z,14.40
2018-05-10T01:06:03.117Z,14.40
2018-05-10T01:08:33.042Z,14.40
2018-05-10T01:11:02.856Z,14.40
2018-05-10T01:13:32.680Z,14.40
2018-05-10T01:16:01.724Z,14.40
2018-05-10T01:18:30.792Z,14.30
2018-05-10T01:20:59.834Z,14.30
2018-05-10T01:23:29.658Z,14.30
2018-05-10T01:25:59.459Z,14.30
2018-05-10T01:28:28.520Z,14.30
2018-05-10T01:30:57.552Z,14.30
2018-05-10T01:33:27.386Z,14.20
2018-05-10T01:36:14.254Z,14.20
2018-05-10T01:38:43.323Z,14.20
2018-05-10T01:41:12.446Z,14.20
2018-05-10T01:43:41.491Z,14.20
2018-05-10T01:46:10.553Z,14.10
2018-05-10T01:48:40.348Z,14.10
2018-05-10T01:51:09.405Z,14.00
2018-05-10T01:53:38.444Z,14.00
2018-05-10T01:56:07.496Z,14.00
2018-05-10T01:58:36.586Z,14.00
2018-05-10T02:01:05.645Z,13.90
2018-05-10T02:03:35.468Z,13.90
2018-05-10T02:06:04.492Z,13.90
2018-05-10T02:08:33.556Z,13.90
2018-05-10T02:11:02.593Z,13.80
2018-05-10T02:13:32.433Z,13.80
2018-05-10T02:16:01.464Z,13.80
2018-05-10T02:18:30.533Z,13.80
2018-05-10T02:21:00.372Z,13.70
2018-05-10T02:23:29.424Z,13.70
2018-05-10T02:25:58.495Z,13.70
2018-05-10T02:28:27.537Z,13.70
2018-05-10T02:30:57.374Z,13.60
2018-05-10T02:33:26.408Z,13.60
2018-05-10T02:35:55.481Z,13.60
2018-05-10T02:38:24.513Z,13.60
2018-05-10T02:40:54.345Z,13.50
2018-05-10T02:43:24.149Z,13.50
2018-05-10T02:45:53.987Z,13.50
2018-05-10T02:48:23.034Z,13.40
2018-05-10T02:50:52.111Z,13.40
2018-05-10T02:53:21.163Z,13.40
2018-05-10T02:55:50.203Z,13.40
2018-05-10T02:58:19.281Z,13.40
2018-05-10T03:00:48.327Z,13.40
2018-05-10T03:03:18.170Z,13.40
2018-05-10T03:05:47.211Z,13.40
2018-05-10T03:08:16.276Z,13.30
2018-05-10T03:10:45.345Z,13.30
2018-05-10T03:13:14.391Z,13.30
2018-05-10T03:15:43.465Z,13.30
2018-05-10T03:18:12.517Z,13.30
2018-05-10T03:20:41.587Z,13.20
2018-05-10T03:23:10.630Z,13.20
2018-05-10T03:25:39.697Z,13.20
2018-05-10T03:28:09.531Z,13.20
2018-05-10T03:30:38.629Z,13.20
2018-05-10T03:33:07.679Z,13.20
2018-05-10T03:35:36.765Z,13.20
2018-05-10T03:38:05.849Z,13.20
2018-05-10T03:40:34.983Z,13.20
2018-05-10T03:43:03.967Z,13.20
2018-05-10T03:45:33.779Z,13.20
2018-05-10T03:48:03.617Z,13.20
2018-05-10T03:50:32.661Z,13.20
2018-05-10T03:53:01.753Z,13.20
2018-05-10T03:55:30.782Z,13.20
2018-05-10T03:57:59.878Z,13.20
2018-05-10T04:00:29.718Z,13.20
2018-05-10T04:16:47.970Z,13.20
2018-05-10T04:19:17.009Z,13.20
2018-05-10T04:21:46.847Z,13.30
2018-05-10T04:24:15.898Z,13.30
2018-05-10T04:26:44.995Z,13.30
2018-05-10T04:29:14.048Z,13.40
2018-05-10T04:31:43.081Z,13.40
2018-05-10T04:34:12.156Z,13.40
2018-05-10T04:36:41.203Z,13.40
2018-05-10T04:39:10.279Z,13.50
2018-05-10T04:41:40.088Z,13.50
2018-05-10T04:44:09.929Z,13.50
2018-05-10T04:46:39.719Z,13.50
2018-05-10T04:49:09.577Z,13.50
2018-05-10T04:51:38.612Z,13.60
2018-05-10T04:54:08.447Z,13.60
2018-05-10T04:56:37.537Z,13.50
2018-05-10T04:59:07.348Z,13.60
2018-05-10T05:01:37.193Z,13.60
2018-05-10T05:04:06.235Z,13.60
2018-05-10T05:06:35.312Z,13.60
2018-05-10T05:09:04.379Z,13.70
2018-05-10T05:11:33.541Z,13.70
2018-05-10T05:14:03.370Z,13.80
2018-05-10T05:16:32.437Z,13.80
2018-05-10T05:19:02.288Z,13.90
2018-05-10T05:21:31.419Z,13.90
2018-05-10T05:24:00.415Z,14.00
2018-05-10T05:26:29.465Z,14.00
2018-05-10T05:28:58.552Z,14.10
2018-05-10T05:31:27.607Z,14.20
2018-05-10T05:33:56.668Z,14.20
2018-05-10T05:36:25.708Z,14.40
2018-05-10T05:38:55.565Z,14.50
2018-05-10T05:41:24.725Z,14.50
2018-05-10T05:43:53.728Z,14.60
2018-05-10T05:46:23.550Z,14.70
2018-05-10T05:48:52.611Z,14.70
2018-05-10T05:51:21.797Z,14.70
2018-05-10T05:53:50.844Z,14.70
2018-05-10T05:56:19.892Z,14.70
2018-05-10T05:58:49.068Z,14.70
2018-05-10T06:01:18.165Z,14.70
2018-05-10T06:03:47.204Z,14.70
2018-05-10T06:06:17.040Z,14.70
2018-05-10T06:08:46.146Z,14.70
2018-05-10T06:11:15.454Z,14.80
2018-05-10T06:13:44.556Z,14.80
2018-05-10T06:16:14.229Z,14.80
2018-05-10T06:18:43.275Z,14.90
2018-05-10T06:21:12.343Z,15.00
2018-05-10T06:23:41.405Z,15.10
2018-05-10T06:26:11.214Z,15.20
2018-05-10T06:28:40.908Z,15.20
2018-05-10T06:31:09.945Z,15.20
2018-05-10T06:33:39.061Z,15.30
2018-05-10T06:36:08.182Z,15.40
2018-05-10T06:38:37.233Z,15.50
2018-05-10T06:41:06.313Z,15.60
2018-05-10T06:43:35.352Z,15.60
2018-05-10T06:46:04.407Z,15.70
2018-05-10T06:48:33.586Z,15.90
2018-05-10T06:51:03.396Z,16.20
2018-05-10T06:53:33.288Z,16.30
2018-05-10T06:56:03.132Z,16.40
2018-05-10T06:58:32.176Z,16.40
2018-05-10T07:01:01.252Z,16.50
2018-05-10T07:03:30.423Z,16.60
2018-05-10T07:06:00.159Z,16.80
2018-05-10T07:08:29.207Z,16.90
2018-05-10T07:10:59.020Z,17.10
2018-05-10T07:13:28.821Z,17.30
2018-05-10T07:15:58.634Z,17.40
2018-05-10T07:18:28.442Z,17.50
2018-05-10T07:20:58.271Z,17.70
2018-05-10T07:23:27.318Z,17.70
2018-05-10T07:25:56.362Z,17.80
2018-05-10T07:28:26.244Z,18.10
2018-05-10T07:30:55.581Z,18.10
2018-05-10T07:33:25.384Z,18.30
2018-05-10T07:35:55.324Z,18.50
2018-05-10T07:38:24.385Z,18.40
2018-05-10T07:40:54.221Z,18.70
2018-05-10T07:43:23.279Z,18.70
2018-05-10T07:45:52.355Z,18.80
2018-05-10T07:48:21.419Z,19.00
2018-05-10T07:50:50.488Z,19.10
2018-05-10T07:53:19.529Z,19.20
2018-05-10T07:55:48.613Z,19.30
2018-05-10T07:58:17.655Z,19.40
2018-05-10T08:00:47.479Z,19.60
2018-05-10T08:03:17.315Z,19.60
2018-05-10T08:05:46.350Z,19.60
2018-05-10T08:08:15.454Z,19.70
2018-05-10T08:10:44.493Z,19.80
2018-05-10T08:13:13.662Z,19.90
2018-05-10T08:15:42.724Z,19.90
2018-05-10T08:18:11.788Z,20.00
2018-05-10T08:20:40.830Z,20.00
2018-05-10T08:23:09.898Z,20.10
2018-05-10T08:25:38.982Z,20.10
2018-05-10T08:28:08.044Z,20.20
2018-05-10T08:30:37.178Z,20.40
2018-05-10T08:33:06.230Z,20.40
2018-05-10T08:35:36.040Z,20.50
2018-05-10T08:38:05.864Z,20.60
2018-05-10T08:40:34.947Z,20.60
2018-05-10T08:43:04.773Z,20.70
2018-05-10T08:45:33.817Z,20.70
2018-05-10T08:48:02.889Z,20.80
2018-05-10T08:50:31.935Z,20.90
2018-05-10T08:53:01.810Z,21.10
2018-05-10T08:55:30.832Z,21.00
2018-05-10T08:57:59.909Z,21.10
2018-05-10T09:00:28.959Z,21.20
2018-05-10T09:02:57.996Z,21.30
2018-05-10T09:05:27.076Z,21.40
2018-05-10T09:07:56.128Z,21.50
2018-05-10T09:10:25.169Z,21.50
2018-05-10T09:12:54.249Z,21.50
2018-05-10T09:15:23.308Z,21.60
2018-05-10T09:17:53.118Z,21.90
2018-05-10T09:20:22.971Z,21.90
2018-05-10T09:22:52.013Z,21.90
2018-05-10T09:25:21.823Z,21.70
2018-05-10T09:27:51.666Z,21.80
2018-05-10T09:30:20.747Z,21.80
2018-05-10T09:32:49.783Z,21.80
2018-05-10T09:35:18.864Z,21.90
2018-05-10T09:37:47.902Z,22.00
2018-05-10T09:40:16.984Z,22.20
2018-05-10T09:42:47.533Z,22.30
2018-05-10T09:45:16.597Z,22.30
2018-05-10T09:47:45.637Z,22.40
2018-05-10T09:50:15.482Z,22.30
2018-05-10T09:52:44.528Z,22.30
2018-05-10T09:55:13.565Z,22.50
2018-05-10T09:57:42.644Z,22.60
2018-05-10T10:00:11.692Z,22.70
2018-05-10T10:02:40.749Z,22.80
2018-05-10T10:05:09.841Z,23.10
2018-05-10T10:07:38.878Z,23.30
2018-05-10T10:10:07.938Z,23.70
2018-05-10T10:12:37.041Z,24.00
2018-05-10T10:15:06.086Z,24.40
2018-05-10T10:17:35.959Z,24.70
2018-05-10T10:20:04.972Z,24.70
2018-05-10T10:22:34.041Z,24.70
2018-05-10T10:25:03.086Z,24.40
2018-05-10T10:27:32.918Z,24.40
2018-05-10T10:30:01.959Z,24.40
2018-05-10T10:32:31.064Z,24.90
2018-05-10T10:35:00.098Z,25.30
2018-05-10T10:37:29.897Z,25.10
2018-05-10T10:39:59.758Z,25.00
2018-05-10T10:42:28.799Z,25.00
2018-05-10T10:44:58.639Z,25.80
2018-05-10T10:47:27.715Z,25.70
2018-05-10T10:49:56.803Z,26.20
2018-05-10T10:52:26.604Z,26.30
2018-05-10T10:54:56.446Z,26.30
2018-05-10T10:57:25.494Z,26.20
2018-05-10T10:59:54.641Z,26.40
2018-05-10T11:02:23.607Z,26.70
2018-05-10T11:04:53.438Z,27.50
2018-05-10T11:07:22.504Z,27.50
2018-05-10T11:09:51.572Z,27.80
2018-05-10T11:12:20.664Z,28.10
2018-05-10T11:14:49.736Z,28.30
2018-05-10T11:17:18.781Z,28.50
2018-05-10T11:19:47.872Z,28.50
2018-05-10T11:22:16.922Z,28.40
2018-05-10T11:24:45.991Z,28.00
2018-05-10T11:27:15.046Z,28.00
2018-05-10T11:29:44.128Z,28.40
2018-05-10T11:32:13.963Z,28.80
2018-05-10T11:34:43.039Z,28.80
2018-05-10T11:37:12.077Z,28.40
2018-05-10T11:39:41.153Z,28.20
2018-05-10T11:42:10.972Z,27.50
2018-05-10T11:44:40.811Z,26.80
2018-05-10T11:47:09.853Z,26.80
2018-05-10T11:49:38.917Z,26.40
2018-05-10T11:52:07.989Z,26.20
2018-05-10T11:54:37.045Z,26.40
2018-05-10T11:57:06.093Z,27.10
2018-05-10T11:59:35.156Z,27.40
2018-05-10T12:02:05.003Z,27.20
2018-05-10T12:04:34.089Z,27.20
2018-05-10T12:07:03.153Z,26.60
2018-05-10T12:09:32.994Z,25.70
2018-05-10T12:12:02.072Z,25.70
2018-05-10T12:14:31.113Z,25.50
2018-05-10T12:17:00.172Z,25.60
2018-05-10T12:19:29.220Z,26.10
2018-05-10T12:21:58.290Z,26.50
2018-05-10T12:24:27.341Z,26.40
2018-05-10T12:26:56.392Z,26.20
2018-05-10T12:29:25.465Z,25.90
2018-05-10T12:31:54.505Z,25.60
2018-05-10T12:34:23.540Z,25.30
2018-05-10T12:36:52.627Z,25.10
2018-05-10T12:39:21.681Z,24.80
2018-05-10T12:41:50.743Z,24.90
2018-05-10T12:44:19.813Z,25.80
2018-05-10T12:46:48.946Z,27.20
2018-05-10T12:49:17.949Z,28.80
2018-05-10T12:51:46.995Z,30.20
2018-05-10T12:54:16.080Z,30.70
2018-05-10T12:56:45.903Z,31.40
2018-05-10T12:59:14.979Z,31.40
2018-05-10T13:01:44.806Z,30.10
2018-05-10T13:04:14.122Z,30.00
2018-05-10T13:06:43.189Z,29.20
2018-05-10T13:09:13.001Z,27.20
2018-05-10T13:11:42.078Z,27.20
2018-05-10T13:14:11.131Z,26.60
2018-05-10T13:16:40.315Z,26.10
2018-05-10T13:19:09.349Z,25.70
2018-05-10T13:21:38.452Z,25.50
2018-05-10T13:24:07.475Z,25.20
2018-05-10T13:26:36.522Z,24.90
2018-05-10T13:29:05.565Z,24.80
2018-05-10T13:31:34.668Z,24.60
2018-05-10T13:34:03.721Z,24.60
2018-05-10T13:36:32.792Z,24.40
2018-05-10T13:39:01.861Z,24.40
2018-05-10T13:41:30.935Z,24.30
2018-05-10T13:44:00.762Z,24.40
2018-05-10T13:46:29.828Z,24.30
2018-05-10T13:48:59.718Z,24.40
2018-05-10T13:51:28.796Z,24.40
2018-05-10T13:53:57.817Z,24.30
2018-05-10T13:56:26.864Z,24.40
2018-05-10T13:58:55.986Z,24.90
2018-05-10T14:01:24.996Z,25.70
2018-05-10T14:03:54.040Z,26.40
2018-05-10T14:06:23.115Z,27.00
2018-05-10T14:08:52.152Z,27.00
2018-05-10T14:11:22.043Z,26.40
2018-05-10T14:13:51.112Z,26.40
2018-05-10T14:16:20.208Z,26.10
2018-05-10T14:18:50.147Z,25.50
2018-05-10T14:21:19.182Z,25.40
2018-05-10T14:23:48.234Z,25.30
2018-05-10T14:26:17.416Z,25.10
2018-05-10T14:28:47.227Z,25.20
2018-05-10T14:31:17.035Z,25.80
2018-05-10T14:33:46.090Z,25.80
2018-05-10T14:36:15.133Z,26.50
2018-05-10T14:38:44.226Z,27.30
2018-05-10T14:41:13.281Z,27.50
2018-05-10T14:43:42.331Z,27.30
2018-05-10T14:46:11.468Z,27.20
2018-05-10T14:48:40.524Z,26.80
2018-05-10T14:51:09.591Z,26.50
2018-05-10T14:53:39.297Z,26.20
2018-05-10T14:56:09.117Z,25.90
2018-05-10T14:58:38.161Z,25.80
2018-05-10T15:01:07.544Z,25.80
2018-05-10T15:03:36.579Z,25.70
2018-05-10T15:06:05.649Z,25.90
2018-05-10T15:08:34.755Z,26.30
2018-05-10T15:11:03.798Z,26.40
2018-05-10T15:13:32.873Z,26.30
2018-05-10T15:16:02.673Z,25.90
2018-05-10T15:18:31.738Z,25.90
2018-05-10T15:21:00.816Z,25.60
2018-05-10T15:23:29.865Z,25.40
2018-05-10T15:25:59.727Z,24.90
2018-05-10T15:28:28.809Z,24.90
2018-05-10T15:30:57.889Z,24.80
2018-05-10T15:33:26.961Z,24.60
2018-05-10T15:35:56.796Z,24.40
2018-05-10T15:38:25.867Z,24.40
2018-05-10T15:40:54.910Z,24.40
2018-05-10T15:43:23.969Z,24.40
2018-05-10T15:45:53.157Z,25.30
2018-05-10T15:48:22.971Z,27.40
2018-05-10T15:50:52.784Z,28.90
2018-05-10T15:53:22.701Z,30.40
2018-05-10T15:55:52.504Z,31.80
2018-05-10T15:58:22.345Z,33.20
2018-05-10T16:00:52.168Z,34.10
2018-05-10T16:03:21.422Z,34.00
2018-05-10T16:05:51.260Z,35.40
2018-05-10T16:08:20.328Z,35.30
2018-05-10T16:10:50.143Z,36.40
2018-05-10T16:13:19.980Z,36.60
2018-05-10T16:15:49.029Z,36.50
2018-05-10T16:18:18.068Z,36.70
2018-05-10T16:20:47.156Z,36.80
2018-05-10T16:23:16.961Z,36.40
2018-05-10T16:25:46.773Z,36.10
2018-05-10T16:28:16.606Z,35.40
2018-05-10T16:30:45.654Z,35.40
2018-05-10T16:33:14.690Z,34.30
2018-05-10T16:35:43.874Z,32.90
2018-05-10T16:38:13.683Z,30.60
2018-05-10T16:40:43.500Z,29.70
2018-05-10T16:43:13.345Z,29.20
2018-05-10T16:45:42.381Z,29.20
2018-05-10T16:48:11.435Z,29.10
2018-05-10T16:50:40.528Z,28.90
2018-05-10T16:53:10.369Z,28.30
2018-05-10T16:55:39.406Z,28.20
2018-05-10T16:58:08.474Z,28.00
2018-05-10T17:00:37.535Z,27.50
2018-05-10T17:03:06.565Z,27.00
2018-05-10T17:05:35.762Z,26.50
2018-05-10T17:08:04.827Z,25.90
2018-05-10T17:10:33.859Z,25.40
2018-05-10T17:13:02.950Z,25.10
2018-05-10T17:15:31.995Z,24.90
2018-05-10T17:18:01.046Z,24.70
2018-05-10T17:20:31.001Z,24.20
2018-05-10T17:23:00.049Z,24.20
2018-05-10T17:25:29.094Z,24.10
2018-05-10T17:27:58.181Z,24.00
2018-05-10T17:30:27.217Z,23.80
2018-05-10T17:32:56.269Z,23.60
2018-05-10T17:35:25.353Z,23.40
2018-05-10T17:37:54.415Z,23.20
2018-05-10T17:40:23.471Z,23.00
2018-05-10T17:42:52.534Z,22.70
2018-05-10T17:45:21.581Z,22.60
2018-05-10T17:47:50.654Z,22.50
2018-05-10T17:50:19.748Z,22.30
2018-05-10T17:52:48.794Z,22.20
2018-05-10T17:55:18.700Z,21.90
2018-05-10T17:57:47.757Z,21.90
2018-05-10T18:00:16.789Z,21.80
2018-05-10T18:02:46.608Z,21.60
2018-05-10T18:05:16.469Z,21.50
2018-05-10T18:07:45.704Z,21.50
2018-05-10T18:10:14.737Z,21.40
2018-05-10T18:12:43.824Z,21.30
2018-05-10T18:15:12.868Z,21.20
2018-05-10T18:17:41.904Z,21.10
2018-05-10T18:20:11.752Z,20.90
2018-05-10T18:22:40.815Z,20.90
2018-05-10T18:25:10.111Z,20.80
2018-05-10T18:27:39.189Z,20.70
2018-05-10T18:30:09.009Z,20.60
2018-05-10T18:32:38.819Z,20.50
2018-05-10T18:35:08.636Z,20.40
2018-05-10T18:37:38.429Z,20.30
2018-05-10T18:40:07.511Z,20.20
2018-05-10T18:42:36.545Z,20.20
2018-05-10T18:45:06.391Z,20.00
2018-05-10T18:47:35.441Z,19.90
2018-05-10T18:50:05.253Z,19.70
2018-05-10T18:52:35.067Z,19.60
2018-05-10T18:55:04.884Z,19.60
2018-05-10T18:57:33.977Z,19.60
2018-05-10T19:00:03.029Z,19.50
2018-05-10T19:02:32.074Z,19.50
2018-05-10T19:05:01.449Z,19.40
2018-05-10T19:07:31.359Z,19.30
2018-05-10T19:10:00.429Z,19.30
2018-05-10T19:12:29.523Z,19.30
2018-05-10T19:14:58.609Z,19.20
2018-05-10T19:17:28.371Z,19.10
2018-05-10T19:19:58.201Z,19.10
2018-05-10T19:22:27.278Z,19.10
2018-05-10T19:24:57.069Z,19.00
2018-05-10T19:27:26.144Z,19.00
2018-05-10T19:29:55.207Z,18.90
2018-05-10T19:32:24.313Z,18.90
2018-05-10T19:34:53.448Z,18.90
2018-05-10T19:37:22.525Z,18.90
2018-05-10T19:39:52.060Z,18.90
2018-05-10T19:42:21.145Z,18.80
2018-05-10T19:44:50.195Z,18.80
2018-05-10T19:47:20.536Z,18.80
2018-05-10T19:49:49.650Z,18.80
2018-05-10T19:52:18.730Z,18.80
2018-05-10T19:54:47.767Z,18.80
2018-05-10T19:57:17.604Z,18.70
2018-05-10T19:59:46.645Z,18.60
2018-05-10T20:02:15.703Z,18.60
2018-05-10T20:04:44.816Z,18.60
2018-05-10T20:07:13.849Z,18.60
2018-05-10T20:09:43.681Z,18.50
2018-05-10T20:12:12.731Z,18.50
2018-05-10T20:14:41.853Z,18.50
2018-05-10T20:17:10.894Z,18.50
2018-05-10T20:19:39.991Z,18.50
2018-05-10T20:22:09.038Z,18.40
2018-05-10T20:24:38.932Z,18.40
2018-05-10T20:27:08.000Z,18.40
2018-05-10T20:29:37.086Z,18.40
2018-05-10T20:32:06.165Z,18.40
2018-05-10T20:34:35.177Z,18.50
2018-05-10T20:37:04.258Z,18.40
2018-05-10T20:39:33.329Z,18.40
2018-05-10T20:42:03.157Z,18.40
2018-05-10T20:44:32.217Z,18.40
2018-05-10T20:47:01.515Z,18.40
2018-05-10T20:49:30.538Z,18.40
2018-05-10T20:51:59.610Z,18.30
2018-05-10T20:54:29.417Z,18.30
2018-05-10T20:56:58.486Z,18.30
2018-05-10T20:59:27.564Z,18.30
2018-05-10T21:01:56.691Z,18.30
2018-05-10T21:04:25.785Z,18.20
2018-05-10T21:06:54.732Z,18.30
2018-05-10T21:09:23.779Z,18.30
2018-05-10T21:11:52.872Z,18.20
2018-05-10T21:14:21.930Z,18.20
2018-05-10T21:16:51.005Z,18.20
2018-05-10T21:19:20.050Z,18.10
2018-05-10T21:21:49.084Z,18.10
2018-05-10T21:24:18.150Z,18.10
2018-05-10T21:26:47.201Z,18.10
2018-05-10T21:29:16.275Z,18.00
2018-05-10T21:31:45.315Z,18.00
2018-05-10T21:34:14.385Z,18.00
2018-05-10T21:36:43.488Z,18.00
2018-05-10T21:39:12.512Z,18.00
2018-05-10T21:41:41.586Z,18.00
2018-05-10T21:44:10.641Z,18.00
2018-05-10T21:46:39.805Z,18.00
2018-05-10T21:49:26.735Z,18.00
2018-05-10T21:51:56.576Z,17.90
2018-05-10T21:54:25.631Z,17.90
2018-05-10T21:56:55.475Z,17.80
2018-05-10T21:59:24.516Z,17.80
2018-05-10T22:01:53.584Z,17.80
2018-05-10T22:04:22.617Z,17.80
2018-05-10T22:06:51.740Z,17.80
2018-05-10T22:09:20.790Z,17.80
2018-05-10T22:11:49.839Z,17.70
2018-05-10T22:14:18.896Z,17.70
2018-05-10T22:16:47.946Z,17.70
2018-05-10T22:19:17.012Z,17.70
2018-05-10T22:21:46.053Z,17.70
2018-05-10T22:24:15.125Z,17.70
2018-05-10T22:26:44.178Z,17.60
2018-05-10T22:29:14.005Z,17.60
2018-05-10T22:31:43.048Z,17.60
2018-05-10T22:34:12.150Z,17.60
2018-05-10T22:36:41.222Z,17.50
2018-05-10T22:39:10.253Z,17.50
2018-05-10T22:41:39.402Z,17.40
2018-05-10T22:44:08.444Z,17.50
2018-05-10T22:46:37.506Z,17.40
2018-05-10T22:49:06.589Z,17.40
2018-05-10T22:51:35.640Z,17.40
2018-05-10T22:54:05.472Z,17.30
2018-05-10T22:56:34.566Z,17.30
2018-05-10T22:59:04.378Z,17.20
2018-05-10T23:01:33.420Z,17.20
2018-05-10T23:04:03.100Z,17.20
2018-05-10T23:06:32.184Z,17.10
2018-05-10T23:09:01.228Z,17.10
2018-05-10T23:11:30.262Z,17.10
2018-05-10T23:13:59.387Z,17.00
2018-05-10T23:16:28.446Z,17.00
2018-05-10T23:18:58.462Z,16.90
2018-05-10T23:21:28.327Z,16.90
2018-05-10T23:23:57.370Z,16.90
2018-05-10T23:26:27.173Z,16.90
2018-05-10T23:28:57.011Z,16.90
2018-05-10T23:31:26.051Z,16.80
2018-05-10T23:33:55.094Z,16.80
2018-05-10T23:36:24.171Z,16.80
2018-05-10T23:38:53.983Z,16.70
2018-05-10T23:41:23.797Z,16.70
2018-05-10T23:43:53.623Z,16.70
2018-05-10T23:46:22.667Z,16.70
2018-05-10T23:48:51.700Z,16.70
2018-05-10T23:51:21.502Z,16.60
2018-05-10T23:53:51.370Z,16.60
2018-05-10T23:56:20.420Z,16.60
2018-05-10T23:58:50.238Z,16.60
